sensor_id;sensor_type;location;lat;lon;timestamp;temperature;humidity
12470;DHT22;36499;46.484;13.832;2022-10-17T00:00:04;7.80;99.90
12470;DHT22;36499;46.484;13.832;2022-10-17T00:02:32;7.80;99.90
12470;DHT22;36499;46.484;13.832;2022-10-17T00:04:59;7.80;99.90
12470;DHT22;36499;46.484;13.832;2022-10-17T00:07:27;7.70;99.90
12470;DHT22;36499;46.484;13.832;2022-10-17T00:09:57;7.70;99.90
12470;DHT22;36499;46.484;13.832;2022-10-17T00:12:24;7.70;99.90
12470;DHT22;36499;46.484;13.832;2022-10-17T00:14:55;7.80;99.90
12470;DHT22;36499;46.484;13.832;2022-10-17T00:17:25;8.00;99.90
12470;DHT22;36499;46.484;13.832;2022-10-17T00:19:56;7.80;99.90
12470;DHT22;36499;46.484;13.832;2022-10-17T00:22:24;7.90;99.90
12470;DHT22;36499;46.484;13.832;2022-10-17T00:24:51;7.90;99.90
12470;DHT22;36499;46.484;13.832;2022-10-17T00:27:20;7.90;99.90
12470;DHT22;36499;46.484;13.832;2022-10-17T00:29:48;7.80;99.90
12470;DHT22;36499;46.484;13.832;2022-10-17T00:32:17;7.80;99.90
12470;DHT22;36499;46.484;13.832;2022-10-17T00:34:46;7.80;99.90
12470;DHT22;36499;46.484;13.832;2022-10-17T00:37:13;7.70;99.90
12470;DHT22;36499;46.484;13.832;2022-10-17T00:39:40;7.70;99.90
12470;DHT22;36499;46.484;13.832;2022-10-17T00:42:10;7.70;99.90
12470;DHT22;36499;46.484;13.832;2022-10-17T00:45:02;7.80;99.90
12470;DHT22;36499;46.484;13.832;2022-10-17T00:47:34;7.80;99.90
12470;DHT22;36499;46.484;13.832;2022-10-17T00:50:04;7.80;99.90
12470;DHT22;36499;46.484;13.832;2022-10-17T00:52:33;7.80;99.90
12470;DHT22;36499;46.484;13.832;2022-10-17T00:55:07;7.80;99.90
12470;DHT22;36499;46.484;13.832;2022-10-17T00:57:40;7.70;99.90
12470;DHT22;36499;46.484;13.832;2022-10-17T01:00:13;7.60;99.90
12470;DHT22;36499;46.484;13.832;2022-10-17T01:02:43;7.50;99.90
12470;DHT22;36499;46.484;13.832;2022-10-17T01:05:11;7.50;99.90
12470;DHT22;36499;46.484;13.832;2022-10-17T01:07:40;7.50;99.90
12470;DHT22;36499;46.484;13.832;2022-10-17T01:10:10;7.40;99.90
12470;DHT22;36499;46.484;13.832;2022-10-17T01:12:51;7.30;99.90
12470;DHT22;36499;46.484;13.832;2022-10-17T01:15:39;7.40;99.90
12470;DHT22;36499;46.484;13.832;2022-10-17T01:18:25;7.40;99.90
12470;DHT22;36499;46.484;13.832;2022-10-17T01:21:19;7.40;99.90
12470;DHT22;36499;46.484;13.832;2022-10-17T01:24:32;7.40;99.90
12470;DHT22;36499;46.484;13.832;2022-10-17T01:27:48;7.50;99.90
12470;DHT22;36499;46.484;13.832;2022-10-17T01:33:46;7.50;99.90
12470;DHT22;36499;46.484;13.832;2022-10-17T01:36:34;7.50;99.90
12470;DHT22;36499;46.484;13.832;2022-10-17T01:39:14;7.60;99.90
12470;DHT22;36499;46.484;13.832;2022-10-17T01:41:51;7.60;99.90
12470;DHT22;36499;46.484;13.832;2022-10-17T01:44:28;7.50;99.90
12470;DHT22;36499;46.484;13.832;2022-10-17T01:47:06;7.50;99.90
12470;DHT22;36499;46.484;13.832;2022-10-17T01:49:39;7.50;99.90
12470;DHT22;36499;46.484;13.832;2022-10-17T01:52:11;7.50;99.90
12470;DHT22;36499;46.484;13.832;2022-10-17T01:54:47;7.50;99.90
12470;DHT22;36499;46.484;13.832;2022-10-17T01:57:22;7.50;99.90
12470;DHT22;36499;46.484;13.832;2022-10-17T01:59:56;7.50;99.90
12470;DHT22;36499;46.484;13.832;2022-10-17T02:02:26;7.50;99.90
12470;DHT22;36499;46.484;13.832;2022-10-17T02:04:56;7.60;99.90
12470;DHT22;36499;46.484;13.832;2022-10-17T02:07:23;7.60;99.90
12470;DHT22;36499;46.484;13.832;2022-10-17T02:09:50;7.50;99.90
12470;DHT22;36499;46.484;13.832;2022-10-17T02:12:31;7.40;99.90
12470;DHT22;36499;46.484;13.832;2022-10-17T02:18:20;7.40;99.90
12470;DHT22;36499;46.484;13.832;2022-10-17T02:21:07;7.30;99.90
12470;DHT22;36499;46.484;13.832;2022-10-17T02:23:48;7.30;99.90
12470;DHT22;36499;46.484;13.832;2022-10-17T02:26:29;7.20;99.90
12470;DHT22;36499;46.484;13.832;2022-10-17T02:29:08;7.20;99.90
12470;DHT22;36499;46.484;13.832;2022-10-17T02:31:44;7.10;99.90
12470;DHT22;36499;46.484;13.832;2022-10-17T02:34:20;7.20;99.90
12470;DHT22;36499;46.484;13.832;2022-10-17T02:36:54;7.20;99.90
12470;DHT22;36499;46.484;13.832;2022-10-17T02:39:27;7.30;99.90
12470;DHT22;36499;46.484;13.832;2022-10-17T02:42:01;7.30;99.90
12470;DHT22;36499;46.484;13.832;2022-10-17T02:44:32;7.30;99.90
12470;DHT22;36499;46.484;13.832;2022-10-17T02:47:08;7.30;99.90
12470;DHT22;36499;46.484;13.832;2022-10-17T02:49:47;7.30;99.90
12470;DHT22;36499;46.484;13.832;2022-10-17T02:52:23;7.30;99.90
12470;DHT22;36499;46.484;13.832;2022-10-17T02:54:58;7.30;99.90
12470;DHT22;36499;46.484;13.832;2022-10-17T02:57:36;7.30;99.90
12470;DHT22;36499;46.484;13.832;2022-10-17T03:00:12;7.30;99.90
12470;DHT22;36499;46.484;13.832;2022-10-17T03:02:46;7.30;99.90
12470;DHT22;36499;46.484;13.832;2022-10-17T03:05:21;7.30;99.90
12470;DHT22;36499;46.484;13.832;2022-10-17T03:07:50;7.30;99.90
12470;DHT22;36499;46.484;13.832;2022-10-17T03:10:19;7.30;99.90
12470;DHT22;36499;46.484;13.832;2022-10-17T03:12:47;7.30;99.90
12470;DHT22;36499;46.484;13.832;2022-10-17T03:15:15;7.30;99.90
12470;DHT22;36499;46.484;13.832;2022-10-17T03:17:42;7.30;99.90
12470;DHT22;36499;46.484;13.832;2022-10-17T03:20:10;7.20;99.90
12470;DHT22;36499;46.484;13.832;2022-10-17T03:22:38;7.20;99.90
12470;DHT22;36499;46.484;13.832;2022-10-17T03:25:06;7.10;99.90
12470;DHT22;36499;46.484;13.832;2022-10-17T03:27:34;7.10;99.90
12470;DHT22;36499;46.484;13.832;2022-10-17T03:30:01;7.10;99.90
12470;DHT22;36499;46.484;13.832;2022-10-17T03:32:31;7.10;99.90
12470;DHT22;36499;46.484;13.832;2022-10-17T03:34:59;7.10;99.90
12470;DHT22;36499;46.484;13.832;2022-10-17T03:37:27;7.10;99.90
12470;DHT22;36499;46.484;13.832;2022-10-17T03:39:55;7.00;99.90
12470;DHT22;36499;46.484;13.832;2022-10-17T03:42:22;7.00;99.90
12470;DHT22;36499;46.484;13.832;2022-10-17T03:44:50;6.90;99.90
12470;DHT22;36499;46.484;13.832;2022-10-17T03:47:18;6.90;99.90
12470;DHT22;36499;46.484;13.832;2022-10-17T03:49:45;6.80;99.90
12470;DHT22;36499;46.484;13.832;2022-10-17T03:52:13;6.80;99.90
12470;DHT22;36499;46.484;13.832;2022-10-17T03:54:40;6.80;99.90
12470;DHT22;36499;46.484;13.832;2022-10-17T03:57:09;6.90;99.90
12470;DHT22;36499;46.484;13.832;2022-10-17T03:59:36;6.90;99.90
12470;DHT22;36499;46.484;13.832;2022-10-17T04:02:03;7.00;99.90
12470;DHT22;36499;46.484;13.832;2022-10-17T04:04:30;7.00;99.90
12470;DHT22;36499;46.484;13.832;2022-10-17T04:06:58;7.00;99.90
12470;DHT22;36499;46.484;13.832;2022-10-17T04:09:25;6.90;99.90
12470;DHT22;36499;46.484;13.832;2022-10-17T04:11:52;6.90;99.90
12470;DHT22;36499;46.484;13.832;2022-10-17T04:14:21;6.90;99.90
12470;DHT22;36499;46.484;13.832;2022-10-17T04:16:48;6.90;99.90
12470;DHT22;36499;46.484;13.832;2022-10-17T04:19:15;6.90;99.90
12470;DHT22;36499;46.484;13.832;2022-10-17T04:21:42;6.90;99.90
12470;DHT22;36499;46.484;13.832;2022-10-17T04:24:10;6.80;99.90
12470;DHT22;36499;46.484;13.832;2022-10-17T04:26:37;6.80;99.90
12470;DHT22;36499;46.484;13.832;2022-10-17T04:29:04;6.80;99.90
12470;DHT22;36499;46.484;13.832;2022-10-17T04:31:33;6.70;99.90
12470;DHT22;36499;46.484;13.832;2022-10-17T04:34:00;6.80;99.90
12470;DHT22;36499;46.484;13.832;2022-10-17T04:36:27;6.80;99.90
12470;DHT22;36499;46.484;13.832;2022-10-17T04:39:01;6.90;99.90
12470;DHT22;36499;46.484;13.832;2022-10-17T04:41:29;6.90;99.90
12470;DHT22;36499;46.484;13.832;2022-10-17T04:43:57;7.00;99.90
12470;DHT22;36499;46.484;13.832;2022-10-17T04:46:24;6.90;99.90
12470;DHT22;36499;46.484;13.832;2022-10-17T04:48:54;7.00;99.90
12470;DHT22;36499;46.484;13.832;2022-10-17T04:51:21;7.00;99.90
12470;DHT22;36499;46.484;13.832;2022-10-17T04:53:48;7.00;99.90
12470;DHT22;36499;46.484;13.832;2022-10-17T04:56:18;7.00;99.90
12470;DHT22;36499;46.484;13.832;2022-10-17T04:58:47;7.10;99.90
12470;DHT22;36499;46.484;13.832;2022-10-17T05:01:17;6.90;99.90
12470;DHT22;36499;46.484;13.832;2022-10-17T05:03:46;6.90;99.90
12470;DHT22;36499;46.484;13.832;2022-10-17T05:06:17;7.00;99.90
12470;DHT22;36499;46.484;13.832;2022-10-17T05:08:47;7.00;99.90
12470;DHT22;36499;46.484;13.832;2022-10-17T05:11:19;6.90;99.90
12470;DHT22;36499;46.484;13.832;2022-10-17T05:13:50;7.00;99.90
12470;DHT22;36499;46.484;13.832;2022-10-17T05:16:20;7.10;99.90
12470;DHT22;36499;46.484;13.832;2022-10-17T05:18:48;7.10;99.90
12470;DHT22;36499;46.484;13.832;2022-10-17T05:21:21;7.00;99.90
12470;DHT22;36499;46.484;13.832;2022-10-17T05:23:51;7.00;99.90
12470;DHT22;36499;46.484;13.832;2022-10-17T05:26:18;6.90;99.90
12470;DHT22;36499;46.484;13.832;2022-10-17T05:28:46;6.80;99.90
12470;DHT22;36499;46.484;13.832;2022-10-17T05:31:13;6.80;99.90
12470;DHT22;36499;46.484;13.832;2022-10-17T05:33:41;6.70;99.90
12470;DHT22;36499;46.484;13.832;2022-10-17T05:36:09;6.70;99.90
12470;DHT22;36499;46.484;13.832;2022-10-17T05:38:37;6.60;99.90
12470;DHT22;36499;46.484;13.832;2022-10-17T05:41:05;6.50;99.90
12470;DHT22;36499;46.484;13.832;2022-10-17T05:43:32;6.50;99.90
12470;DHT22;36499;46.484;13.832;2022-10-17T05:46:02;6.50;99.90
12470;DHT22;36499;46.484;13.832;2022-10-17T05:48:31;6.50;99.90
12470;DHT22;36499;46.484;13.832;2022-10-17T05:50:59;6.60;99.90
12470;DHT22;36499;46.484;13.832;2022-10-17T05:53:30;6.60;99.90
12470;DHT22;36499;46.484;13.832;2022-10-17T05:56:01;6.70;99.90
12470;DHT22;36499;46.484;13.832;2022-10-17T05:58:30;6.70;99.90
12470;DHT22;36499;46.484;13.832;2022-10-17T06:00:58;6.70;99.90
12470;DHT22;36499;46.484;13.832;2022-10-17T06:03:26;6.70;99.90
12470;DHT22;36499;46.484;13.832;2022-10-17T06:05:53;6.70;99.90
12470;DHT22;36499;46.484;13.832;2022-10-17T06:08:20;6.70;99.90
12470;DHT22;36499;46.484;13.832;2022-10-17T06:10:48;6.80;99.90
12470;DHT22;36499;46.484;13.832;2022-10-17T06:13:17;6.90;99.90
12470;DHT22;36499;46.484;13.832;2022-10-17T06:15:44;7.00;99.90
12470;DHT22;36499;46.484;13.832;2022-10-17T06:18:12;7.00;99.90
12470;DHT22;36499;46.484;13.832;2022-10-17T06:20:39;7.00;99.90
12470;DHT22;36499;46.484;13.832;2022-10-17T06:23:06;7.10;99.90
12470;DHT22;36499;46.484;13.832;2022-10-17T06:25:37;7.20;99.90
12470;DHT22;36499;46.484;13.832;2022-10-17T06:28:04;7.30;99.90
12470;DHT22;36499;46.484;13.832;2022-10-17T06:30:33;7.40;99.90
12470;DHT22;36499;46.484;13.832;2022-10-17T06:33:00;7.50;99.90
12470;DHT22;36499;46.484;13.832;2022-10-17T06:35:27;7.70;99.90
12470;DHT22;36499;46.484;13.832;2022-10-17T06:37:54;7.70;99.90
12470;DHT22;36499;46.484;13.832;2022-10-17T06:40:21;7.80;99.90
12470;DHT22;36499;46.484;13.832;2022-10-17T06:42:48;7.90;99.90
12470;DHT22;36499;46.484;13.832;2022-10-17T06:45:15;8.00;99.90
12470;DHT22;36499;46.484;13.832;2022-10-17T06:47:44;8.10;99.90
12470;DHT22;36499;46.484;13.832;2022-10-17T06:50:11;8.20;99.90
12470;DHT22;36499;46.484;13.832;2022-10-17T06:52:38;8.30;99.90
12470;DHT22;36499;46.484;13.832;2022-10-17T06:55:05;8.50;99.90
12470;DHT22;36499;46.484;13.832;2022-10-17T06:57:33;8.60;99.90
12470;DHT22;36499;46.484;13.832;2022-10-17T07:00:00;8.80;99.90
12470;DHT22;36499;46.484;13.832;2022-10-17T07:02:27;8.90;99.90
12470;DHT22;36499;46.484;13.832;2022-10-17T07:04:55;9.10;99.90
12470;DHT22;36499;46.484;13.832;2022-10-17T07:07:23;9.20;99.90
12470;DHT22;36499;46.484;13.832;2022-10-17T07:09:50;9.30;99.90
12470;DHT22;36499;46.484;13.832;2022-10-17T07:12:18;9.50;99.90
12470;DHT22;36499;46.484;13.832;2022-10-17T07:14:45;9.70;99.90
12470;DHT22;36499;46.484;13.832;2022-10-17T07:17:15;9.90;99.90
12470;DHT22;36499;46.484;13.832;2022-10-17T07:19:43;9.90;99.90
12470;DHT22;36499;46.484;13.832;2022-10-17T07:22:12;10.00;99.90
12470;DHT22;36499;46.484;13.832;2022-10-17T07:24:39;10.20;99.90
12470;DHT22;36499;46.484;13.832;2022-10-17T07:27:08;10.30;99.90
12470;DHT22;36499;46.484;13.832;2022-10-17T07:29:39;10.50;99.90
12470;DHT22;36499;46.484;13.832;2022-10-17T07:32:07;10.70;99.90
12470;DHT22;36499;46.484;13.832;2022-10-17T07:34:34;10.80;99.90
12470;DHT22;36499;46.484;13.832;2022-10-17T07:37:01;10.90;99.90
12470;DHT22;36499;46.484;13.832;2022-10-17T07:39:33;11.10;99.90
12470;DHT22;36499;46.484;13.832;2022-10-17T07:42:01;11.20;99.90
12470;DHT22;36499;46.484;13.832;2022-10-17T07:44:28;11.40;99.90
12470;DHT22;36499;46.484;13.832;2022-10-17T07:46:56;11.60;99.90
12470;DHT22;36499;46.484;13.832;2022-10-17T07:49:23;11.80;99.90
12470;DHT22;36499;46.484;13.832;2022-10-17T07:51:50;12.00;99.90
12470;DHT22;36499;46.484;13.832;2022-10-17T07:54:17;12.30;99.90
12470;DHT22;36499;46.484;13.832;2022-10-17T07:56:46;12.40;99.90
12470;DHT22;36499;46.484;13.832;2022-10-17T07:59:15;12.60;99.90
12470;DHT22;36499;46.484;13.832;2022-10-17T08:01:43;12.80;99.90
12470;DHT22;36499;46.484;13.832;2022-10-17T08:04:10;12.90;99.90
12470;DHT22;36499;46.484;13.832;2022-10-17T08:06:38;13.10;99.90
12470;DHT22;36499;46.484;13.832;2022-10-17T08:09:08;13.30;99.90
12470;DHT22;36499;46.484;13.832;2022-10-17T08:11:37;13.50;99.90
12470;DHT22;36499;46.484;13.832;2022-10-17T08:14:06;13.70;99.90
12470;DHT22;36499;46.484;13.832;2022-10-17T08:16:33;13.80;99.90
12470;DHT22;36499;46.484;13.832;2022-10-17T08:19:00;13.90;99.90
12470;DHT22;36499;46.484;13.832;2022-10-17T08:21:28;13.90;99.90
12470;DHT22;36499;46.484;13.832;2022-10-17T08:23:59;13.90;99.90
12470;DHT22;36499;46.484;13.832;2022-10-17T08:26:28;13.90;99.90
12470;DHT22;36499;46.484;13.832;2022-10-17T08:28:55;14.00;99.90
12470;DHT22;36499;46.484;13.832;2022-10-17T08:31:24;14.00;99.90
12470;DHT22;36499;46.484;13.832;2022-10-17T08:33:52;14.00;99.90
12470;DHT22;36499;46.484;13.832;2022-10-17T08:36:19;14.10;99.90
12470;DHT22;36499;46.484;13.832;2022-10-17T08:38:47;14.20;99.90
12470;DHT22;36499;46.484;13.832;2022-10-17T08:41:27;14.40;99.90
12470;DHT22;36499;46.484;13.832;2022-10-17T08:44:10;14.50;99.90
12470;DHT22;36499;46.484;13.832;2022-10-17T08:46:51;14.60;99.90
12470;DHT22;36499;46.484;13.832;2022-10-17T08:49:30;14.70;99.90
12470;DHT22;36499;46.484;13.832;2022-10-17T08:52:17;14.80;99.90
12470;DHT22;36499;46.484;13.832;2022-10-17T08:54:50;14.90;99.90
12470;DHT22;36499;46.484;13.832;2022-10-17T08:57:17;15.00;99.90
12470;DHT22;36499;46.484;13.832;2022-10-17T08:59:49;15.10;99.90
12470;DHT22;36499;46.484;13.832;2022-10-17T09:02:37;15.20;99.90
12470;DHT22;36499;46.484;13.832;2022-10-17T09:05:34;15.50;99.90
12470;DHT22;36499;46.484;13.832;2022-10-17T09:08:27;15.90;99.90
12470;DHT22;36499;46.484;13.832;2022-10-17T09:11:08;16.30;99.90
12470;DHT22;36499;46.484;13.832;2022-10-17T09:13:57;16.60;99.90
12470;DHT22;36499;46.484;13.832;2022-10-17T09:16:49;16.80;99.90
12470;DHT22;36499;46.484;13.832;2022-10-17T09:19:31;16.90;99.90
12470;DHT22;36499;46.484;13.832;2022-10-17T09:22:05;17.00;99.90
12470;DHT22;36499;46.484;13.832;2022-10-17T09:24:42;17.00;99.90
12470;DHT22;36499;46.484;13.832;2022-10-17T09:27:22;17.10;99.90
12470;DHT22;36499;46.484;13.832;2022-10-17T09:29:56;17.30;99.90
12470;DHT22;36499;46.484;13.832;2022-10-17T09:32:41;17.50;99.90
12470;DHT22;36499;46.484;13.832;2022-10-17T09:35:12;17.70;99.90
12470;DHT22;36499;46.484;13.832;2022-10-17T09:37:41;18.00;99.90
12470;DHT22;36499;46.484;13.832;2022-10-17T09:40:16;18.30;99.90
12470;DHT22;36499;46.484;13.832;2022-10-17T09:42:48;18.50;99.90
12470;DHT22;36499;46.484;13.832;2022-10-17T09:45:18;18.80;99.90
12470;DHT22;36499;46.484;13.832;2022-10-17T09:48:04;18.90;99.90
12470;DHT22;36499;46.484;13.832;2022-10-17T09:50:39;19.00;99.90
12470;DHT22;36499;46.484;13.832;2022-10-17T09:53:13;19.10;99.90
12470;DHT22;36499;46.484;13.832;2022-10-17T09:55:50;19.10;99.90
12470;DHT22;36499;46.484;13.832;2022-10-17T09:58:22;19.40;99.90
12470;DHT22;36499;46.484;13.832;2022-10-17T10:01:19;19.50;99.90
12470;DHT22;36499;46.484;13.832;2022-10-17T10:04:06;19.80;99.90
12470;DHT22;36499;46.484;13.832;2022-10-17T10:06:40;19.90;99.90
12470;DHT22;36499;46.484;13.832;2022-10-17T10:09:29;20.00;99.90
12470;DHT22;36499;46.484;13.832;2022-10-17T10:12:02;20.10;99.90
12470;DHT22;36499;46.484;13.832;2022-10-17T10:14:34;20.20;99.90
12470;DHT22;36499;46.484;13.832;2022-10-17T10:17:05;20.40;99.90
12470;DHT22;36499;46.484;13.832;2022-10-17T10:19:53;20.60;99.90
12470;DHT22;36499;46.484;13.832;2022-10-17T10:22:22;20.40;99.90
12470;DHT22;36499;46.484;13.832;2022-10-17T10:25:06;20.50;99.90
12470;DHT22;36499;46.484;13.832;2022-10-17T10:27:39;20.70;99.90
12470;DHT22;36499;46.484;13.832;2022-10-17T10:30:16;20.70;99.90
12470;DHT22;36499;46.484;13.832;2022-10-17T10:32:46;20.70;99.90
12470;DHT22;36499;46.484;13.832;2022-10-17T10:35:19;20.80;99.90
12470;DHT22;36499;46.484;13.832;2022-10-17T10:37:51;21.00;99.90
12470;DHT22;36499;46.484;13.832;2022-10-17T10:40:23;21.00;99.90
12470;DHT22;36499;46.484;13.832;2022-10-17T10:42:56;21.10;99.90
12470;DHT22;36499;46.484;13.832;2022-10-17T10:45:27;21.50;99.90
12470;DHT22;36499;46.484;13.832;2022-10-17T10:48:19;21.40;99.90
12470;DHT22;36499;46.484;13.832;2022-10-17T10:50:49;21.40;99.90
12470;DHT22;36499;46.484;13.832;2022-10-17T10:53:40;21.40;99.90
12470;DHT22;36499;46.484;13.832;2022-10-17T10:56:17;21.50;99.90
12470;DHT22;36499;46.484;13.832;2022-10-17T10:58:53;21.60;99.90
12470;DHT22;36499;46.484;13.832;2022-10-17T11:01:30;21.60;99.90
12470;DHT22;36499;46.484;13.832;2022-10-17T11:04:18;21.70;99.90
12470;DHT22;36499;46.484;13.832;2022-10-17T11:06:56;21.90;99.90
12470;DHT22;36499;46.484;13.832;2022-10-17T11:09:36;21.90;99.90
12470;DHT22;36499;46.484;13.832;2022-10-17T11:12:16;21.90;99.90
12470;DHT22;36499;46.484;13.832;2022-10-17T11:14:55;21.90;99.90
12470;DHT22;36499;46.484;13.832;2022-10-17T11:17:34;21.90;99.90
12470;DHT22;36499;46.484;13.832;2022-10-17T11:20:16;22.00;99.90
12470;DHT22;36499;46.484;13.832;2022-10-17T11:22:52;22.10;99.90
12470;DHT22;36499;46.484;13.832;2022-10-17T11:25:33;22.00;99.90
12470;DHT22;36499;46.484;13.832;2022-10-17T11:28:03;22.20;99.90
12470;DHT22;36499;46.484;13.832;2022-10-17T11:30:44;22.20;99.90
12470;DHT22;36499;46.484;13.832;2022-10-17T11:33:19;22.30;99.90
12470;DHT22;36499;46.484;13.832;2022-10-17T11:35:54;22.30;99.90
12470;DHT22;36499;46.484;13.832;2022-10-17T11:38:38;22.30;99.90
12470;DHT22;36499;46.484;13.832;2022-10-17T11:41:12;22.30;99.90
12470;DHT22;36499;46.484;13.832;2022-10-17T11:43:50;22.40;99.90
12470;DHT22;36499;46.484;13.832;2022-10-17T11:46:27;22.40;99.90
12470;DHT22;36499;46.484;13.832;2022-10-17T11:49:05;22.40;99.90
12470;DHT22;36499;46.484;13.832;2022-10-17T11:51:47;22.40;99.90
12470;DHT22;36499;46.484;13.832;2022-10-17T11:54:24;22.40;99.90
12470;DHT22;36499;46.484;13.832;2022-10-17T11:57:14;22.40;99.90
12470;DHT22;36499;46.484;13.832;2022-10-17T12:00:00;22.30;99.90
12470;DHT22;36499;46.484;13.832;2022-10-17T12:02:44;22.20;99.90
12470;DHT22;36499;46.484;13.832;2022-10-17T12:05:22;22.20;99.90
12470;DHT22;36499;46.484;13.832;2022-10-17T12:08:00;22.30;99.90
12470;DHT22;36499;46.484;13.832;2022-10-17T12:10:48;22.20;99.90
12470;DHT22;36499;46.484;13.832;2022-10-17T12:13:51;22.40;99.90
12470;DHT22;36499;46.484;13.832;2022-10-17T12:16:46;22.40;99.30
12470;DHT22;36499;46.484;13.832;2022-10-17T12:19:24;22.30;99.60
12470;DHT22;36499;46.484;13.832;2022-10-17T12:22:05;22.20;99.90
12470;DHT22;36499;46.484;13.832;2022-10-17T12:24:55;22.20;99.90
12470;DHT22;36499;46.484;13.832;2022-10-17T12:27:38;22.30;99.50
12470;DHT22;36499;46.484;13.832;2022-10-17T12:30:19;22.40;99.90
12470;DHT22;36499;46.484;13.832;2022-10-17T12:32:55;22.50;99.90
12470;DHT22;36499;46.484;13.832;2022-10-17T12:35:38;22.60;99.90
12470;DHT22;36499;46.484;13.832;2022-10-17T12:38:27;22.60;99.80
12470;DHT22;36499;46.484;13.832;2022-10-17T12:40:59;22.60;99.90
12470;DHT22;36499;46.484;13.832;2022-10-17T12:43:49;22.60;99.60
12470;DHT22;36499;46.484;13.832;2022-10-17T12:46:42;22.60;98.40
12470;DHT22;36499;46.484;13.832;2022-10-17T12:52:24;22.60;99.30
12470;DHT22;36499;46.484;13.832;2022-10-17T12:54:59;22.40;99.10
12470;DHT22;36499;46.484;13.832;2022-10-17T12:57:46;22.40;99.70
12470;DHT22;36499;46.484;13.832;2022-10-17T13:00:30;22.30;99.30
12470;DHT22;36499;46.484;13.832;2022-10-17T13:03:05;22.30;99.60
12470;DHT22;36499;46.484;13.832;2022-10-17T13:05:41;22.40;99.90
12470;DHT22;36499;46.484;13.832;2022-10-17T13:08:15;22.30;99.30
12470;DHT22;36499;46.484;13.832;2022-10-17T13:10:48;22.30;99.90
12470;DHT22;36499;46.484;13.832;2022-10-17T13:13:22;22.20;99.50
12470;DHT22;36499;46.484;13.832;2022-10-17T13:15:58;22.30;99.10
12470;DHT22;36499;46.484;13.832;2022-10-17T13:18:28;22.30;99.90
12470;DHT22;36499;46.484;13.832;2022-10-17T13:20:57;22.40;99.50
12470;DHT22;36499;46.484;13.832;2022-10-17T13:23:31;22.30;99.30
12470;DHT22;36499;46.484;13.832;2022-10-17T13:26:16;22.20;98.40
12470;DHT22;36499;46.484;13.832;2022-10-17T13:28:58;22.30;99.00
12470;DHT22;36499;46.484;13.832;2022-10-17T13:31:29;22.30;98.90
12470;DHT22;36499;46.484;13.832;2022-10-17T13:34:01;22.30;97.90
12470;DHT22;36499;46.484;13.832;2022-10-17T13:36:30;22.20;99.00
12470;DHT22;36499;46.484;13.832;2022-10-17T13:39:05;22.20;98.20
12470;DHT22;36499;46.484;13.832;2022-10-17T13:41:35;22.20;99.40
12470;DHT22;36499;46.484;13.832;2022-10-17T13:44:08;22.20;98.10
12470;DHT22;36499;46.484;13.832;2022-10-17T13:46:39;22.20;98.30
12470;DHT22;36499;46.484;13.832;2022-10-17T13:49:16;22.10;98.10
12470;DHT22;36499;46.484;13.832;2022-10-17T13:51:50;22.10;99.20
12470;DHT22;36499;46.484;13.832;2022-10-17T13:54:32;22.10;98.10
12470;DHT22;36499;46.484;13.832;2022-10-17T13:57:13;22.10;98.40
12470;DHT22;36499;46.484;13.832;2022-10-17T13:59:47;22.00;98.60
12470;DHT22;36499;46.484;13.832;2022-10-17T14:02:20;21.90;98.50
12470;DHT22;36499;46.484;13.832;2022-10-17T14:05:02;21.50;99.00
12470;DHT22;36499;46.484;13.832;2022-10-17T14:07:42;21.50;99.30
12470;DHT22;36499;46.484;13.832;2022-10-17T14:10:19;21.30;99.00
12470;DHT22;36499;46.484;13.832;2022-10-17T14:12:52;21.20;99.10
12470;DHT22;36499;46.484;13.832;2022-10-17T14:15:25;21.00;99.30
12470;DHT22;36499;46.484;13.832;2022-10-17T14:17:55;20.80;99.80
12470;DHT22;36499;46.484;13.832;2022-10-17T14:20:26;20.60;99.50
12470;DHT22;36499;46.484;13.832;2022-10-17T14:22:54;20.30;99.80
12470;DHT22;36499;46.484;13.832;2022-10-17T14:25:29;19.90;99.90
12470;DHT22;36499;46.484;13.832;2022-10-17T14:28:07;19.50;99.90
12470;DHT22;36499;46.484;13.832;2022-10-17T14:30:52;19.20;99.90
12470;DHT22;36499;46.484;13.832;2022-10-17T14:33:24;18.80;99.90
12470;DHT22;36499;46.484;13.832;2022-10-17T14:35:57;18.50;99.90
12470;DHT22;36499;46.484;13.832;2022-10-17T14:38:27;18.30;99.90
12470;DHT22;36499;46.484;13.832;2022-10-17T14:40:58;18.10;99.90
12470;DHT22;36499;46.484;13.832;2022-10-17T14:43:30;17.80;99.90
12470;DHT22;36499;46.484;13.832;2022-10-17T14:45:59;17.60;99.90
12470;DHT22;36499;46.484;13.832;2022-10-17T14:48:28;17.40;99.90
12470;DHT22;36499;46.484;13.832;2022-10-17T14:51:12;17.30;99.90
12470;DHT22;36499;46.484;13.832;2022-10-17T14:53:42;17.20;99.90
12470;DHT22;36499;46.484;13.832;2022-10-17T14:56:26;17.10;99.90
12470;DHT22;36499;46.484;13.832;2022-10-17T14:58:59;16.90;99.90
12470;DHT22;36499;46.484;13.832;2022-10-17T15:01:31;16.90;99.90
12470;DHT22;36499;46.484;13.832;2022-10-17T15:03:59;16.70;99.90
12470;DHT22;36499;46.484;13.832;2022-10-17T15:06:28;16.70;99.90
12470;DHT22;36499;46.484;13.832;2022-10-17T15:08:58;16.50;99.90
12470;DHT22;36499;46.484;13.832;2022-10-17T15:11:25;16.40;99.90
12470;DHT22;36499;46.484;13.832;2022-10-17T15:13:53;16.40;99.90
12470;DHT22;36499;46.484;13.832;2022-10-17T15:16:21;16.30;99.90
12470;DHT22;36499;46.484;13.832;2022-10-17T15:18:50;16.20;99.90
12470;DHT22;36499;46.484;13.832;2022-10-17T15:21:20;16.10;99.90
12470;DHT22;36499;46.484;13.832;2022-10-17T15:23:51;16.00;99.90
12470;DHT22;36499;46.484;13.832;2022-10-17T15:26:20;15.90;99.90
12470;DHT22;36499;46.484;13.832;2022-10-17T15:28:50;15.90;99.90
12470;DHT22;36499;46.484;13.832;2022-10-17T15:31:20;15.70;99.90
12470;DHT22;36499;46.484;13.832;2022-10-17T15:33:48;15.60;99.90
12470;DHT22;36499;46.484;13.832;2022-10-17T15:36:21;15.50;99.90
12470;DHT22;36499;46.484;13.832;2022-10-17T15:38:53;15.40;99.90
12470;DHT22;36499;46.484;13.832;2022-10-17T15:41:24;15.30;99.90
12470;DHT22;36499;46.484;13.832;2022-10-17T15:43:52;15.30;99.90
12470;DHT22;36499;46.484;13.832;2022-10-17T15:46:22;15.30;99.90
12470;DHT22;36499;46.484;13.832;2022-10-17T15:48:51;15.20;99.90
12470;DHT22;36499;46.484;13.832;2022-10-17T15:51:19;15.30;99.90
12470;DHT22;36499;46.484;13.832;2022-10-17T15:53:46;15.20;99.90
12470;DHT22;36499;46.484;13.832;2022-10-17T15:56:19;15.10;99.90
12470;DHT22;36499;46.484;13.832;2022-10-17T15:58:49;15.10;99.90
12470;DHT22;36499;46.484;13.832;2022-10-17T16:01:19;14.90;99.90
12470;DHT22;36499;46.484;13.832;2022-10-17T16:03:49;14.80;99.90
12470;DHT22;36499;46.484;13.832;2022-10-17T16:06:18;14.70;99.90
12470;DHT22;36499;46.484;13.832;2022-10-17T16:08:47;14.60;99.90